sensor_id;sensor_type;location;lat;lon;timestamp;P1;durP1;ratioP1;P2;durP2;ratioP2
65581;SDS011;52231;40.090;18.348;2023-10-13T00:01:57;53.83;;;21.23;;
65581;SDS011;52231;40.090;18.348;2023-10-13T00:04:32;50.92;;;20.67;;
65581;SDS011;52231;40.090;18.348;2023-10-13T00:07:03;51.15;;;20.17;;
65581;SDS011;52231;40.090;18.348;2023-10-13T00:09:32;56.42;;;21.17;;
65581;SDS011;52231;40.090;18.348;2023-10-13T00:12:01;47.65;;;20.67;;
65581;SDS011;52231;40.090;18.348;2023-10-13T00:14:30;53.80;;;21.70;;
65581;SDS011;52231;40.090;18.348;2023-10-13T00:17:02;49.00;;;19.60;;
65581;SDS011;52231;40.090;18.348;2023-10-13T00:19:32;54.03;;;19.65;;
65581;SDS011;52231;40.090;18.348;2023-10-13T00:22:20;50.63;;;19.98;;
65581;SDS011;52231;40.090;18.348;2023-10-13T00:24:50;47.33;;;20.90;;
65581;SDS011;52231;40.090;18.348;2023-10-13T00:27:19;44.42;;;19.75;;
65581;SDS011;52231;40.090;18.348;2023-10-13T00:30:02;51.13;;;22.02;;
65581;SDS011;52231;40.090;18.348;2023-10-13T00:32:52;53.85;;;22.80;;
65581;SDS011;52231;40.090;18.348;2023-10-13T00:35:24;54.00;;;24.23;;
65581;SDS011;52231;40.090;18.348;2023-10-13T00:37:56;55.40;;;23.77;;
65581;SDS011;52231;40.090;18.348;2023-10-13T00:40:31;69.82;;;26.63;;
65581;SDS011;52231;40.090;18.348;2023-10-13T00:43:00;59.97;;;27.88;;
65581;SDS011;52231;40.090;18.348;2023-10-13T00:45:48;64.35;;;28.20;;
65581;SDS011;52231;40.090;18.348;2023-10-13T00:48:37;50.97;;;22.38;;
65581;SDS011;52231;40.090;18.348;2023-10-13T00:51:29;60.67;;;27.10;;
65581;SDS011;52231;40.090;18.348;2023-10-13T00:57:03;58.55;;;26.95;;
65581;SDS011;52231;40.090;18.348;2023-10-13T00:59:35;62.88;;;27.52;;
65581;SDS011;52231;40.090;18.348;2023-10-13T01:02:03;53.42;;;24.40;;
65581;SDS011;52231;40.090;18.348;2023-10-13T01:04:51;62.33;;;25.90;;
65581;SDS011;52231;40.090;18.348;2023-10-13T01:07:21;62.95;;;27.23;;
65581;SDS011;52231;40.090;18.348;2023-10-13T01:09:50;59.53;;;26.85;;
65581;SDS011;52231;40.090;18.348;2023-10-13T01:12:18;58.35;;;26.42;;
65581;SDS011;52231;40.090;18.348;2023-10-13T01:14:47;62.08;;;25.20;;
65581;SDS011;52231;40.090;18.348;2023-10-13T01:17:16;59.67;;;27.30;;
65581;SDS011;52231;40.090;18.348;2023-10-13T01:19:45;61.50;;;26.92;;
65581;SDS011;52231;40.090;18.348;2023-10-13T01:22:16;60.72;;;28.30;;
65581;SDS011;52231;40.090;18.348;2023-10-13T01:24:44;59.45;;;27.80;;
65581;SDS011;52231;40.090;18.348;2023-10-13T01:30:49;55.22;;;25.98;;
65581;SDS011;52231;40.090;18.348;2023-10-13T01:33:18;61.55;;;26.05;;
65581;SDS011;52231;40.090;18.348;2023-10-13T01:35:57;59.75;;;26.45;;
65581;SDS011;52231;40.090;18.348;2023-10-13T01:38:26;56.25;;;26.95;;
65581;SDS011;52231;40.090;18.348;2023-10-13T01:41:00;57.78;;;26.60;;
65581;SDS011;52231;40.090;18.348;2023-10-13T01:43:32;53.10;;;25.88;;
65581;SDS011;52231;40.090;18.348;2023-10-13T01:46:00;54.45;;;27.60;;
65581;SDS011;52231;40.090;18.348;2023-10-13T01:48:30;53.42;;;28.88;;
65581;SDS011;52231;40.090;18.348;2023-10-13T01:51:06;51.33;;;25.98;;
65581;SDS011;52231;40.090;18.348;2023-10-13T01:53:37;54.13;;;25.33;;
65581;SDS011;52231;40.090;18.348;2023-10-13T01:56:06;49.13;;;25.95;;
65581;SDS011;52231;40.090;18.348;2023-10-13T01:58:38;52.33;;;25.42;;
65581;SDS011;52231;40.090;18.348;2023-10-13T02:01:10;54.58;;;25.90;;
65581;SDS011;52231;40.090;18.348;2023-10-13T02:03:38;46.38;;;24.73;;
65581;SDS011;52231;40.090;18.348;2023-10-13T02:06:33;51.25;;;24.70;;
65581;SDS011;52231;40.090;18.348;2023-10-13T02:09:04;48.97;;;23.40;;
65581;SDS011;52231;40.090;18.348;2023-10-13T02:11:53;54.47;;;26.13;;
65581;SDS011;52231;40.090;18.348;2023-10-13T02:14:21;49.80;;;23.70;;
65581;SDS011;52231;40.090;18.348;2023-10-13T02:16:50;50.42;;;22.00;;
65581;SDS011;52231;40.090;18.348;2023-10-13T02:19:18;50.08;;;20.48;;
65581;SDS011;52231;40.090;18.348;2023-10-13T02:21:47;65.18;;;21.50;;
65581;SDS011;52231;40.090;18.348;2023-10-13T02:24:26;64.55;;;25.70;;
65581;SDS011;52231;40.090;18.348;2023-10-13T02:26:57;57.78;;;28.02;;
65581;SDS011;52231;40.090;18.348;2023-10-13T02:29:40;54.65;;;25.90;;
65581;SDS011;52231;40.090;18.348;2023-10-13T02:32:09;65.57;;;27.65;;
65581;SDS011;52231;40.090;18.348;2023-10-13T02:34:46;55.13;;;26.35;;
65581;SDS011;52231;40.090;18.348;2023-10-13T02:37:14;55.78;;;29.02;;
65581;SDS011;52231;40.090;18.348;2023-10-13T02:39:46;58.25;;;25.98;;
65581;SDS011;52231;40.090;18.348;2023-10-13T02:42:14;60.42;;;27.60;;
65581;SDS011;52231;40.090;18.348;2023-10-13T02:44:51;59.42;;;27.88;;
65581;SDS011;52231;40.090;18.348;2023-10-13T02:47:24;61.15;;;27.02;;
65581;SDS011;52231;40.090;18.348;2023-10-13T02:49:54;78.32;;;29.55;;
65581;SDS011;52231;40.090;18.348;2023-10-13T02:52:22;72.32;;;28.08;;
65581;SDS011;52231;40.090;18.348;2023-10-13T02:54:52;73.65;;;28.67;;
65581;SDS011;52231;40.090;18.348;2023-10-13T02:57:20;74.20;;;29.77;;
65581;SDS011;52231;40.090;18.348;2023-10-13T02:59:50;71.50;;;26.58;;
65581;SDS011;52231;40.090;18.348;2023-10-13T03:02:23;65.10;;;28.20;;
65581;SDS011;52231;40.090;18.348;2023-10-13T03:04:54;90.28;;;29.00;;
65581;SDS011;52231;40.090;18.348;2023-10-13T03:07:36;77.05;;;29.40;;
65581;SDS011;52231;40.090;18.348;2023-10-13T03:10:05;72.78;;;28.25;;
65581;SDS011;52231;40.090;18.348;2023-10-13T03:12:39;63.53;;;28.45;;
65581;SDS011;52231;40.090;18.348;2023-10-13T03:15:08;67.25;;;27.17;;
65581;SDS011;52231;40.090;18.348;2023-10-13T03:17:47;57.17;;;25.50;;
65581;SDS011;52231;40.090;18.348;2023-10-13T03:20:16;60.25;;;28.70;;
65581;SDS011;52231;40.090;18.348;2023-10-13T03:22:54;61.03;;;27.30;;
65581;SDS011;52231;40.090;18.348;2023-10-13T03:25:22;70.03;;;26.30;;
65581;SDS011;52231;40.090;18.348;2023-10-13T03:28:14;52.88;;;23.90;;
65581;SDS011;52231;40.090;18.348;2023-10-13T03:30:45;51.70;;;23.45;;
65581;SDS011;52231;40.090;18.348;2023-10-13T03:33:15;44.58;;;21.83;;
65581;SDS011;52231;40.090;18.348;2023-10-13T03:35:53;51.88;;;23.25;;
65581;SDS011;52231;40.090;18.348;2023-10-13T03:38:21;53.05;;;23.50;;
65581;SDS011;52231;40.090;18.348;2023-10-13T03:40:55;46.80;;;24.42;;
65581;SDS011;52231;40.090;18.348;2023-10-13T03:43:46;47.80;;;22.75;;
65581;SDS011;52231;40.090;18.348;2023-10-13T03:46:20;51.03;;;23.58;;
65581;SDS011;52231;40.090;18.348;2023-10-13T03:48:49;47.10;;;24.33;;
65581;SDS011;52231;40.090;18.348;2023-10-13T03:51:29;49.22;;;24.77;;
65581;SDS011;52231;40.090;18.348;2023-10-13T03:54:20;46.42;;;23.75;;
65581;SDS011;52231;40.090;18.348;2023-10-13T03:59:20;42.42;;;24.38;;
65581;SDS011;52231;40.090;18.348;2023-10-13T04:01:50;43.13;;;23.77;;
65581;SDS011;52231;40.090;18.348;2023-10-13T04:04:21;45.03;;;24.13;;
65581;SDS011;52231;40.090;18.348;2023-10-13T04:09:36;36.53;;;19.90;;
65581;SDS011;52231;40.090;18.348;2023-10-13T04:12:08;39.33;;;21.15;;
65581;SDS011;52231;40.090;18.348;2023-10-13T04:14:40;42.88;;;22.15;;
65581;SDS011;52231;40.090;18.348;2023-10-13T04:17:28;38.33;;;20.63;;
65581;SDS011;52231;40.090;18.348;2023-10-13T04:20:01;41.78;;;22.58;;
65581;SDS011;52231;40.090;18.348;2023-10-13T04:22:33;41.28;;;21.63;;
65581;SDS011;52231;40.090;18.348;2023-10-13T04:25:24;42.15;;;24.05;;
65581;SDS011;52231;40.090;18.348;2023-10-13T04:28:22;40.45;;;23.20;;
65581;SDS011;52231;40.090;18.348;2023-10-13T04:31:05;47.33;;;24.15;;
65581;SDS011;52231;40.090;18.348;2023-10-13T04:33:39;44.38;;;24.05;;
65581;SDS011;52231;40.090;18.348;2023-10-13T04:36:26;45.35;;;22.98;;
65581;SDS011;52231;40.090;18.348;2023-10-13T04:38:55;42.08;;;22.15;;
65581;SDS011;52231;40.090;18.348;2023-10-13T04:41:33;45.25;;;23.65;;
65581;SDS011;52231;40.090;18.348;2023-10-13T04:44:17;42.40;;;21.45;;
65581;SDS011;52231;40.090;18.348;2023-10-13T04:46:52;44.95;;;23.05;;
65581;SDS011;52231;40.090;18.348;2023-10-13T04:49:27;46.05;;;22.98;;
65581;SDS011;52231;40.090;18.348;2023-10-13T04:52:04;46.08;;;21.02;;
65581;SDS011;52231;40.090;18.348;2023-10-13T04:54:37;40.00;;;20.85;;
65581;SDS011;52231;40.090;18.348;2023-10-13T05:00:03;43.75;;;21.25;;
65581;SDS011;52231;40.090;18.348;2023-10-13T05:02:42;42.53;;;22.52;;
65581;SDS011;52231;40.090;18.348;2023-10-13T05:05:46;39.92;;;22.45;;
65581;SDS011;52231;40.090;18.348;2023-10-13T05:08:36;42.80;;;21.98;;
65581;SDS011;52231;40.090;18.348;2023-10-13T05:14:12;40.13;;;22.35;;
65581;SDS011;52231;40.090;18.348;2023-10-13T05:16:59;44.42;;;22.23;;
65581;SDS011;52231;40.090;18.348;2023-10-13T05:19:46;50.42;;;23.58;;
65581;SDS011;52231;40.090;18.348;2023-10-13T05:26:11;49.88;;;22.00;;
65581;SDS011;52231;40.090;18.348;2023-10-13T05:28:58;48.75;;;23.58;;
65581;SDS011;52231;40.090;18.348;2023-10-13T05:31:52;42.03;;;23.23;;
65581;SDS011;52231;40.090;18.348;2023-10-13T05:34:42;41.67;;;22.38;;
65581;SDS011;52231;40.090;18.348;2023-10-13T05:37:28;37.42;;;21.25;;
65581;SDS011;52231;40.090;18.348;2023-10-13T05:40:16;40.50;;;20.92;;
65581;SDS011;52231;40.090;18.348;2023-10-13T05:44:13;37.15;;;19.58;;
65581;SDS011;52231;40.090;18.348;2023-10-13T05:46:59;39.13;;;19.25;;
65581;SDS011;52231;40.090;18.348;2023-10-13T05:49:46;38.65;;;19.42;;
65581;SDS011;52231;40.090;18.348;2023-10-13T05:52:18;36.97;;;19.98;;
65581;SDS011;52231;40.090;18.348;2023-10-13T05:54:47;34.85;;;17.63;;
65581;SDS011;52231;40.090;18.348;2023-10-13T05:57:34;34.20;;;18.95;;
65581;SDS011;52231;40.090;18.348;2023-10-13T06:00:13;27.83;;;16.83;;
65581;SDS011;52231;40.090;18.348;2023-10-13T06:07:35;28.02;;;15.02;;
65581;SDS011;52231;40.090;18.348;2023-10-13T06:10:22;33.42;;;15.02;;
65581;SDS011;52231;40.090;18.348;2023-10-13T06:13:08;26.35;;;16.30;;
65581;SDS011;52231;40.090;18.348;2023-10-13T06:15:57;26.02;;;15.73;;
65581;SDS011;52231;40.090;18.348;2023-10-13T06:18:47;27.33;;;13.82;;
65581;SDS011;52231;40.090;18.348;2023-10-13T06:21:35;28.00;;;15.55;;
65581;SDS011;52231;40.090;18.348;2023-10-13T06:24:22;29.58;;;15.13;;
65581;SDS011;52231;40.090;18.348;2023-10-13T06:27:09;25.83;;;14.60;;
65581;SDS011;52231;40.090;18.348;2023-10-13T06:29:57;26.30;;;14.55;;
65581;SDS011;52231;40.090;18.348;2023-10-13T06:32:26;24.92;;;14.52;;
65581;SDS011;52231;40.090;18.348;2023-10-13T06:34:57;26.88;;;14.38;;
65581;SDS011;52231;40.090;18.348;2023-10-13T06:37:26;26.25;;;14.70;;
65581;SDS011;52231;40.090;18.348;2023-10-13T06:40:11;24.13;;;14.02;;
65581;SDS011;52231;40.090;18.348;2023-10-13T06:42:49;24.27;;;15.00;;
65581;SDS011;52231;40.090;18.348;2023-10-13T06:45:17;27.55;;;15.00;;
65581;SDS011;52231;40.090;18.348;2023-10-13T06:47:45;24.90;;;13.70;;
65581;SDS011;52231;40.090;18.348;2023-10-13T06:50:14;24.00;;;14.55;;
65581;SDS011;52231;40.090;18.348;2023-10-13T06:52:43;24.38;;;13.30;;
65581;SDS011;52231;40.090;18.348;2023-10-13T06:55:12;21.85;;;13.20;;
65581;SDS011;52231;40.090;18.348;2023-10-13T06:57:44;22.50;;;13.02;;
65581;SDS011;52231;40.090;18.348;2023-10-13T07:00:14;21.38;;;12.85;;
65581;SDS011;52231;40.090;18.348;2023-10-13T07:02:56;22.27;;;12.80;;
65581;SDS011;52231;40.090;18.348;2023-10-13T07:05:38;22.38;;;12.85;;
65581;SDS011;52231;40.090;18.348;2023-10-13T07:08:06;21.75;;;12.77;;
65581;SDS011;52231;40.090;18.348;2023-10-13T07:10:36;23.60;;;13.93;;
65581;SDS011;52231;40.090;18.348;2023-10-13T07:13:19;22.08;;;13.82;;
65581;SDS011;52231;40.090;18.348;2023-10-13T07:15:47;26.65;;;14.23;;
65581;SDS011;52231;40.090;18.348;2023-10-13T07:18:15;25.40;;;14.43;;
65581;SDS011;52231;40.090;18.348;2023-10-13T07:20:50;22.23;;;12.50;;
65581;SDS011;52231;40.090;18.348;2023-10-13T07:23:18;23.65;;;13.20;;
65581;SDS011;52231;40.090;18.348;2023-10-13T07:25:54;20.17;;;10.10;;
65581;SDS011;52231;40.090;18.348;2023-10-13T07:28:30;20.70;;;10.80;;
65581;SDS011;52231;40.090;18.348;2023-10-13T07:31:03;17.38;;;8.48;;
65581;SDS011;52231;40.090;18.348;2023-10-13T07:33:31;19.63;;;9.15;;
65581;SDS011;52231;40.090;18.348;2023-10-13T07:36:00;15.43;;;7.88;;
65581;SDS011;52231;40.090;18.348;2023-10-13T07:38:38;13.65;;;7.32;;
65581;SDS011;52231;40.090;18.348;2023-10-13T07:41:09;13.85;;;6.53;;
65581;SDS011;52231;40.090;18.348;2023-10-13T07:43:43;14.32;;;6.78;;
65581;SDS011;52231;40.090;18.348;2023-10-13T07:46:16;13.18;;;6.15;;
65581;SDS011;52231;40.090;18.348;2023-10-13T07:48:45;16.02;;;6.75;;
65581;SDS011;52231;40.090;18.348;2023-10-13T07:51:13;19.83;;;7.35;;
65581;SDS011;52231;40.090;18.348;2023-10-13T07:53:43;18.77;;;8.30;;
65581;SDS011;52231;40.090;18.348;2023-10-13T07:56:16;17.63;;;8.10;;
65581;SDS011;52231;40.090;18.348;2023-10-13T07:58:46;21.23;;;9.48;;
65581;SDS011;52231;40.090;18.348;2023-10-13T08:01:20;19.15;;;8.65;;
65581;SDS011;52231;40.090;18.348;2023-10-13T08:03:48;17.35;;;9.10;;
65581;SDS011;52231;40.090;18.348;2023-10-13T08:06:32;22.00;;;9.60;;
65581;SDS011;52231;40.090;18.348;2023-10-13T08:09:01;20.50;;;9.48;;
65581;SDS011;52231;40.090;18.348;2023-10-13T08:11:52;25.92;;;9.82;;
65581;SDS011;52231;40.090;18.348;2023-10-13T08:14:22;20.05;;;8.95;;
65581;SDS011;52231;40.090;18.348;2023-10-13T08:16:53;27.60;;;12.77;;
65581;SDS011;52231;40.090;18.348;2023-10-13T08:19:23;25.05;;;8.40;;
65581;SDS011;52231;40.090;18.348;2023-10-13T08:21:57;19.63;;;8.45;;
65581;SDS011;52231;40.090;18.348;2023-10-13T08:24:26;19.05;;;7.75;;
65581;SDS011;52231;40.090;18.348;2023-10-13T08:26:55;19.60;;;6.82;;
65581;SDS011;52231;40.090;18.348;2023-10-13T08:29:26;14.18;;;6.40;;
65581;SDS011;52231;40.090;18.348;2023-10-13T08:31:55;16.60;;;7.10;;
65581;SDS011;52231;40.090;18.348;2023-10-13T08:34:42;17.80;;;5.63;;
65581;SDS011;52231;40.090;18.348;2023-10-13T08:39:51;16.83;;;6.30;;
65581;SDS011;52231;40.090;18.348;2023-10-13T08:42:52;16.42;;;6.20;;
65581;SDS011;52231;40.090;18.348;2023-10-13T08:45:35;15.95;;;5.78;;
65581;SDS011;52231;40.090;18.348;2023-10-13T08:48:05;20.17;;;6.53;;
65581;SDS011;52231;40.090;18.348;2023-10-13T08:50:36;14.65;;;5.60;;
65581;SDS011;52231;40.090;18.348;2023-10-13T08:53:27;12.38;;;4.93;;
65581;SDS011;52231;40.090;18.348;2023-10-13T08:58:33;16.08;;;5.45;;
65581;SDS011;52231;40.090;18.348;2023-10-13T09:04:10;16.58;;;5.20;;
65581;SDS011;52231;40.090;18.348;2023-10-13T09:06:55;13.45;;;5.07;;
65581;SDS011;52231;40.090;18.348;2023-10-13T09:09:27;16.27;;;5.00;;
65581;SDS011;52231;40.090;18.348;2023-10-13T09:12:10;15.15;;;5.13;;
65581;SDS011;52231;40.090;18.348;2023-10-13T09:14:54;16.50;;;5.13;;
65581;SDS011;52231;40.090;18.348;2023-10-13T09:17:31;15.10;;;4.40;;
65581;SDS011;52231;40.090;18.348;2023-10-13T09:20:09;11.15;;;4.13;;
65581;SDS011;52231;40.090;18.348;2023-10-13T09:22:54;12.00;;;4.18;;
65581;SDS011;52231;40.090;18.348;2023-10-13T09:25:33;13.95;;;4.03;;
65581;SDS011;52231;40.090;18.348;2023-10-13T09:28:12;16.65;;;4.35;;
65581;SDS011;52231;40.090;18.348;2023-10-13T09:30:45;14.95;;;4.95;;
65581;SDS011;52231;40.090;18.348;2023-10-13T09:33:20;14.68;;;4.47;;
65581;SDS011;52231;40.090;18.348;2023-10-13T09:36:07;12.10;;;4.53;;
65581;SDS011;52231;40.090;18.348;2023-10-13T09:38:36;14.98;;;4.53;;
65581;SDS011;52231;40.090;18.348;2023-10-13T09:41:08;15.65;;;5.28;;
65581;SDS011;52231;40.090;18.348;2023-10-13T09:43:54;13.25;;;4.82;;
65581;SDS011;52231;40.090;18.348;2023-10-13T09:46:26;12.38;;;4.63;;
65581;SDS011;52231;40.090;18.348;2023-10-13T09:48:59;11.32;;;4.32;;
65581;SDS011;52231;40.090;18.348;2023-10-13T09:51:42;10.73;;;4.10;;
65581;SDS011;52231;40.090;18.348;2023-10-13T09:54:26;15.25;;;4.40;;
65581;SDS011;52231;40.090;18.348;2023-10-13T09:57:14;14.85;;;5.35;;
65581;SDS011;52231;40.090;18.348;2023-10-13T09:59:48;14.02;;;5.10;;
65581;SDS011;52231;40.090;18.348;2023-10-13T10:02:21;12.80;;;5.00;;
65581;SDS011;52231;40.090;18.348;2023-10-13T10:04:56;10.43;;;4.57;;
65581;SDS011;52231;40.090;18.348;2023-10-13T10:07:55;11.30;;;4.30;;
65581;SDS011;52231;40.090;18.348;2023-10-13T10:10:27;13.23;;;4.72;;
65581;SDS011;52231;40.090;18.348;2023-10-13T10:13:15;16.20;;;5.00;;
65581;SDS011;52231;40.090;18.348;2023-10-13T10:16:12;15.50;;;5.18;;
65581;SDS011;52231;40.090;18.348;2023-10-13T10:18:48;13.52;;;4.88;;
65581;SDS011;52231;40.090;18.348;2023-10-13T10:21:35;15.43;;;5.30;;
65581;SDS011;52231;40.090;18.348;2023-10-13T10:24:14;10.75;;;4.35;;
65581;SDS011;52231;40.090;18.348;2023-10-13T10:29:25;9.23;;;3.90;;
65581;SDS011;52231;40.090;18.348;2023-10-13T10:31:53;11.43;;;4.30;;
65581;SDS011;52231;40.090;18.348;2023-10-13T10:34:21;10.60;;;4.03;;
65581;SDS011;52231;40.090;18.348;2023-10-13T10:37:00;8.55;;;3.47;;
65581;SDS011;52231;40.090;18.348;2023-10-13T10:39:35;9.25;;;2.95;;
65581;SDS011;52231;40.090;18.348;2023-10-13T10:42:13;15.82;;;4.38;;
65581;SDS011;52231;40.090;18.348;2023-10-13T10:44:51;8.93;;;3.60;;
65581;SDS011;52231;40.090;18.348;2023-10-13T10:47:32;13.02;;;3.95;;
65581;SDS011;52231;40.090;18.348;2023-10-13T10:50:06;15.52;;;4.13;;
65581;SDS011;52231;40.090;18.348;2023-10-13T10:52:57;12.18;;;3.20;;
65581;SDS011;52231;40.090;18.348;2023-10-13T10:55:25;9.93;;;3.40;;
65581;SDS011;52231;40.090;18.348;2023-10-13T10:58:00;11.10;;;3.33;;
65581;SDS011;52231;40.090;18.348;2023-10-13T11:00:29;14.43;;;3.15;;
65581;SDS011;52231;40.090;18.348;2023-10-13T11:03:13;10.02;;;3.95;;
65581;SDS011;52231;40.090;18.348;2023-10-13T11:05:47;12.85;;;4.15;;
65581;SDS011;52231;40.090;18.348;2023-10-13T11:08:24;11.63;;;3.88;;
65581;SDS011;52231;40.090;18.348;2023-10-13T11:11:05;12.82;;;4.72;;
65581;SDS011;52231;40.090;18.348;2023-10-13T11:16:21;13.05;;;4.05;;
65581;SDS011;52231;40.090;18.348;2023-10-13T11:19:02;14.65;;;4.57;;
65581;SDS011;52231;40.090;18.348;2023-10-13T11:21:32;10.45;;;4.07;;
65581;SDS011;52231;40.090;18.348;2023-10-13T11:24:05;13.02;;;4.60;;
65581;SDS011;52231;40.090;18.348;2023-10-13T11:26:36;11.88;;;4.43;;
65581;SDS011;52231;40.090;18.348;2023-10-13T11:29:32;12.77;;;4.10;;
65581;SDS011;52231;40.090;18.348;2023-10-13T11:32:03;11.48;;;4.22;;
65581;SDS011;52231;40.090;18.348;2023-10-13T11:34:32;12.68;;;4.57;;
65581;SDS011;52231;40.090;18.348;2023-10-13T11:37:27;11.93;;;4.28;;
65581;SDS011;52231;40.090;18.348;2023-10-13T11:39:56;11.77;;;4.22;;
65581;SDS011;52231;40.090;18.348;2023-10-13T11:42:24;8.32;;;3.53;;
65581;SDS011;52231;40.090;18.348;2023-10-13T11:44:55;9.73;;;3.70;;
65581;SDS011;52231;40.090;18.348;2023-10-13T11:47:43;12.90;;;3.60;;
65581;SDS011;52231;40.090;18.348;2023-10-13T11:50:41;11.20;;;3.63;;
65581;SDS011;52231;40.090;18.348;2023-10-13T11:53:17;17.25;;;4.05;;
65581;SDS011;52231;40.090;18.348;2023-10-13T11:55:45;12.27;;;3.67;;
65581;SDS011;52231;40.090;18.348;2023-10-13T11:58:14;13.50;;;3.67;;
65581;SDS011;52231;40.090;18.348;2023-10-13T12:00:44;12.93;;;3.72;;
65581;SDS011;52231;40.090;18.348;2023-10-13T12:03:22;12.30;;;3.75;;
65581;SDS011;52231;40.090;18.348;2023-10-13T12:06:08;10.93;;;3.75;;
65581;SDS011;52231;40.090;18.348;2023-10-13T12:08:58;11.27;;;3.60;;
65581;SDS011;52231;40.090;18.348;2023-10-13T12:11:39;10.38;;;3.38;;
65581;SDS011;52231;40.090;18.348;2023-10-13T12:14:09;13.77;;;3.72;;
65581;SDS011;52231;40.090;18.348;2023-10-13T12:16:55;9.50;;;3.63;;
65581;SDS011;52231;40.090;18.348;2023-10-13T12:19:30;12.40;;;3.13;;
65581;SDS011;52231;40.090;18.348;2023-10-13T12:21:59;12.30;;;3.80;;
65581;SDS011;52231;40.090;18.348;2023-10-13T12:24:33;11.55;;;3.45;;
65581;SDS011;52231;40.090;18.348;2023-10-13T12:27:04;10.43;;;2.97;;
65581;SDS011;52231;40.090;18.348;2023-10-13T12:29:52;9.07;;;3.38;;
65581;SDS011;52231;40.090;18.348;2023-10-13T12:32:42;14.70;;;4.13;;
65581;SDS011;52231;40.090;18.348;2023-10-13T12:35:25;9.30;;;3.20;;
65581;SDS011;52231;40.090;18.348;2023-10-13T12:38:12;11.10;;;3.53;;
65581;SDS011;52231;40.090;18.348;2023-10-13T12:40:59;13.38;;;3.67;;
65581;SDS011;52231;40.090;18.348;2023-10-13T12:43:54;8.77;;;3.10;;
65581;SDS011;52231;40.090;18.348;2023-10-13T12:46:41;11.55;;;3.47;;
65581;SDS011;52231;40.090;18.348;2023-10-13T12:49:28;9.77;;;3.50;;
65581;SDS011;52231;40.090;18.348;2023-10-13T12:52:09;13.05;;;3.92;;
65581;SDS011;52231;40.090;18.348;2023-10-13T12:54:44;7.75;;;2.92;;
65581;SDS011;52231;40.090;18.348;2023-10-13T12:57:25;9.10;;;3.47;;
65581;SDS011;52231;40.090;18.348;2023-10-13T12:59:55;8.95;;;3.05;;
65581;SDS011;52231;40.090;18.348;2023-10-13T13:02:24;13.23;;;3.40;;
65581;SDS011;52231;40.090;18.348;2023-10-13T13:04:55;8.95;;;3.28;;
65581;SDS011;52231;40.090;18.348;2023-10-13T13:07:42;11.55;;;3.70;;
65581;SDS011;52231;40.090;18.348;2023-10-13T13:10:20;9.27;;;3.05;;
65581;SDS011;52231;40.090;18.348;2023-10-13T13:13:03;9.00;;;3.10;;
65581;SDS011;52231;40.090;18.348;2023-10-13T13:15:32;10.02;;;3.35;;
65581;SDS011;52231;40.090;18.348;2023-10-13T13:18:00;12.40;;;3.60;;
65581;SDS011;52231;40.090;18.348;2023-10-13T13:20:43;9.65;;;3.58;;
65581;SDS011;52231;40.090;18.348;2023-10-13T13:23:21;11.90;;;4.10;;
65581;SDS011;52231;40.090;18.348;2023-10-13T13:25:58;11.38;;;3.20;;
65581;SDS011;52231;40.090;18.348;2023-10-13T13:28:27;11.40;;;3.70;;
65581;SDS011;52231;40.090;18.348;2023-10-13T13:31:05;12.40;;;3.60;;
65581;SDS011;52231;40.090;18.348;2023-10-13T13:33:35;12.18;;;3.90;;
65581;SDS011;52231;40.090;18.348;2023-10-13T13:36:06;8.77;;;3.50;;
65581;SDS011;52231;40.090;18.348;2023-10-13T13:38:34;15.90;;;3.72;;
65581;SDS011;52231;40.090;18.348;2023-10-13T13:41:03;13.88;;;3.50;;
65581;SDS011;52231;40.090;18.348;2023-10-13T13:46:05;9.90;;;3.53;;
65581;SDS011;52231;40.090;18.348;2023-10-13T13:48:38;7.07;;;2.70;;
65581;SDS011;52231;40.090;18.348;2023-10-13T13:51:08;10.15;;;3.50;;
65581;SDS011;52231;40.090;18.348;2023-10-13T13:53:43;14.55;;;3.28;;
65581;SDS011;52231;40.090;18.348;2023-10-13T13:56:13;12.35;;;3.00;;
65581;SDS011;52231;40.090;18.348;2023-10-13T13:58:46;9.38;;;2.88;;
65581;SDS011;52231;40.090;18.348;2023-10-13T14:01:16;12.20;;;3.22;;
65581;SDS011;52231;40.090;18.348;2023-10-13T14:03:49;10.48;;;3.15;;
65581;SDS011;52231;40.090;18.348;2023-10-13T14:06:20;11.90;;;3.17;;
65581;SDS011;52231;40.090;18.348;2023-10-13T14:08:56;12.05;;;3.17;;
65581;SDS011;52231;40.090;18.348;2023-10-13T14:11:29;9.52;;;3.17;;
65581;SDS011;52231;40.090;18.348;2023-10-13T14:16:54;8.55;;;2.83;;
65581;SDS011;52231;40.090;18.348;2023-10-13T14:19:31;9.75;;;3.20;;
65581;SDS011;52231;40.090;18.348;2023-10-13T14:22:00;12.32;;;3.35;;
65581;SDS011;52231;40.090;18.348;2023-10-13T14:24:34;12.20;;;3.22;;
65581;SDS011;52231;40.090;18.348;2023-10-13T14:27:03;13.13;;;3.95;;
65581;SDS011;52231;40.090;18.348;2023-10-13T14:29:47;11.63;;;3.33;;
65581;SDS011;52231;40.090;18.348;2023-10-13T14:32:15;11.32;;;3.88;;
65581;SDS011;52231;40.090;18.348;2023-10-13T14:34:44;12.30;;;3.33;;
65581;SDS011;52231;40.090;18.348;2023-10-13T14:37:16;12.98;;;3.60;;
65581;SDS011;52231;40.090;18.348;2023-10-13T14:39:54;14.35;;;4.03;;
65581;SDS011;52231;40.090;18.348;2023-10-13T14:42:26;13.48;;;3.40;;
65581;SDS011;52231;40.090;18.348;2023-10-13T14:44:55;13.98;;;3.38;;
65581;SDS011;52231;40.090;18.348;2023-10-13T14:47:26;12.98;;;3.35;;
65581;SDS011;52231;40.090;18.348;2023-10-13T14:49:54;10.40;;;3.50;;
65581;SDS011;52231;40.090;18.348;2023-10-13T14:52:27;11.45;;;4.00;;
65581;SDS011;52231;40.090;18.348;2023-10-13T14:54:59;11.32;;;4.80;;
65581;SDS011;52231;40.090;18.348;2023-10-13T14:57:28;16.60;;;4.68;;
65581;SDS011;52231;40.090;18.348;2023-10-13T14:59:56;10.80;;;3.80;;
65581;SDS011;52231;40.090;18.348;2023-10-13T15:02:25;9.55;;;3.75;;
65581;SDS011;52231;40.090;18.348;2023-10-13T15:04:53;16.88;;;4.05;;
65581;SDS011;52231;40.090;18.348;2023-10-13T15:07:22;12.52;;;3.50;;
65581;SDS011;52231;40.090;18.348;2023-10-13T15:09:55;10.88;;;3.45;;
65581;SDS011;52231;40.090;18.348;2023-10-13T15:12:26;10.88;;;3.55;;
65581;SDS011;52231;40.090;18.348;2023-10-13T15:14:55;12.18;;;3.83;;
65581;SDS011;52231;40.090;18.348;2023-10-13T15:17:23;11.60;;;4.18;;
65581;SDS011;52231;40.090;18.348;2023-10-13T15:19:52;15.25;;;4.30;;
65581;SDS011;52231;40.090;18.348;2023-10-13T15:22:20;15.00;;;4.05;;
65581;SDS011;52231;40.090;18.348;2023-10-13T15:24:55;10.70;;;4.13;;
65581;SDS011;52231;40.090;18.348;2023-10-13T15:27:37;12.05;;;3.85;;
65581;SDS011;52231;40.090;18.348;2023-10-13T15:30:27;12.45;;;3.60;;
65581;SDS011;52231;40.090;18.348;2023-10-13T15:33:12;12.23;;;3.80;;
65581;SDS011;52231;40.090;18.348;2023-10-13T15:35:40;13.15;;;3.97;;
65581;SDS011;52231;40.090;18.348;2023-10-13T15:38:12;13.38;;;4.03;;
65581;SDS011;52231;40.090;18.348;2023-10-13T15:43:12;12.15;;;3.92;;
65581;SDS011;52231;40.090;18.348;2023-10-13T15:45:40;13.85;;;4.40;;
65581;SDS011;52231;40.090;18.348;2023-10-13T15:48:10;11.52;;;3.95;;
65581;SDS011;52231;40.090;18.348;2023-10-13T15:50:42;13.15;;;4.18;;
65581;SDS011;52231;40.090;18.348;2023-10-13T15:53:10;13.65;;;4.22;;
65581;SDS011;52231;40.090;18.348;2023-10-13T15:55:40;10.90;;;4.07;;